createdAt,value
2022-09-12T00:00:12.529Z,18.98
2022-09-12T00:02:59.926Z,21.02
2022-09-12T00:05:47.954Z,17.85
2022-09-12T00:08:35.123Z,18.13
2022-09-12T00:11:22.353Z,17.60
2022-09-12T00:14:12.133Z,16.48
2022-09-12T00:17:00.402Z,18.80
2022-09-12T00:19:47.838Z,17.30
2022-09-12T00:22:36.013Z,16.00
2022-09-12T00:25:23.304Z,19.90
2022-09-12T00:28:11.381Z,23.02
2022-09-12T00:30:58.757Z,19.10
2022-09-12T00:33:46.871Z,21.98
2022-09-12T00:36:34.199Z,21.92
2022-09-12T00:39:21.225Z,21.23
2022-09-12T00:42:10.226Z,20.17
2022-09-12T00:44:57.295Z,19.05
2022-09-12T00:47:44.670Z,19.52
2022-09-12T00:50:32.922Z,20.42
2022-09-12T00:53:20.047Z,18.05
2022-09-12T00:56:07.791Z,18.83
2022-09-12T00:59:00.229Z,17.55
2022-09-12T01:01:49.895Z,17.05
2022-09-12T01:04:40.092Z,18.45
2022-09-12T01:07:27.165Z,17.90
2022-09-12T01:10:14.853Z,20.20
2022-09-12T01:13:05.156Z,17.58
2022-09-12T01:15:52.804Z,20.25
2022-09-12T01:18:59.461Z,19.15
2022-09-12T01:22:05.056Z,18.45
2022-09-12T01:25:29.830Z,18.17
2022-09-12T01:28:41.722Z,18.90
2022-09-12T01:31:43.280Z,17.52
2022-09-12T01:34:53.144Z,15.63
2022-09-12T01:38:14.224Z,18.42
2022-09-12T01:41:07.365Z,18.75
2022-09-12T01:44:17.142Z,18.23
2022-09-12T01:47:10.183Z,26.23
2022-09-12T01:50:15.123Z,18.83
2022-09-12T01:53:12.402Z,20.35
2022-09-12T01:56:08.494Z,24.58
2022-09-12T01:59:09.265Z,31.48
2022-09-12T02:02:16.862Z,22.10
2022-09-12T02:05:33.331Z,19.92
2022-09-12T02:08:33.011Z,15.77
2022-09-12T02:11:20.677Z,21.42
2022-09-12T02:14:25.571Z,13.90
2022-09-12T02:17:22.913Z,13.82
2022-09-12T02:20:25.996Z,14.20
2022-09-12T02:23:27.879Z,16.25
2022-09-12T02:26:36.814Z,16.50
2022-09-12T02:29:24.012Z,23.90
2022-09-12T02:32:29.533Z,19.48
2022-09-12T02:35:35.536Z,20.35
2022-09-12T02:38:35.400Z,23.33
2022-09-12T02:41:23.269Z,25.80
2022-09-12T02:44:10.322Z,24.58
2022-09-12T02:47:04.844Z,28.55
2022-09-12T02:49:53.117Z,28.15
2022-09-12T02:52:41.341Z,23.88
2022-09-12T02:55:30.384Z,28.58
2022-09-12T02:58:23.483Z,24.80
2022-09-12T03:01:16.891Z,30.35
2022-09-12T03:04:25.758Z,24.35
2022-09-12T03:07:33.994Z,21.15
2022-09-12T03:10:45.931Z,25.17
2022-09-12T03:13:39.028Z,22.45
2022-09-12T03:16:53.605Z,25.75
2022-09-12T03:19:47.459Z,27.20
2022-09-12T03:22:51.135Z,30.33
2022-09-12T03:25:45.302Z,34.70
2022-09-12T03:28:34.934Z,38.95
2022-09-12T03:31:22.141Z,34.15
2022-09-12T03:34:13.065Z,29.63
2022-09-12T03:37:00.234Z,26.95
2022-09-12T03:39:47.423Z,27.27
2022-09-12T03:42:34.626Z,31.30
2022-09-12T03:45:21.752Z,21.98
2022-09-12T03:48:08.922Z,23.23
2022-09-12T03:50:59.436Z,21.63
2022-09-12T03:53:46.872Z,26.35
2022-09-12T03:56:35.301Z,26.90
2022-09-12T03:59:22.382Z,22.02
2022-09-12T04:02:12.476Z,20.88
2022-09-12T04:04:59.538Z,19.90
2022-09-12T04:07:46.752Z,19.00
2022-09-12T04:10:34.027Z,17.90
2022-09-12T04:13:21.510Z,20.55
2022-09-12T04:16:09.417Z,17.17
2022-09-12T04:18:56.878Z,14.63
2022-09-12T04:21:43.966Z,15.25
2022-09-12T04:24:31.413Z,16.23
2022-09-12T04:27:18.537Z,18.50
2022-09-12T04:30:06.344Z,17.83
2022-09-12T04:32:53.432Z,25.73
2022-09-12T04:35:41.501Z,23.52
2022-09-12T04:38:29.055Z,19.58
2022-09-12T04:41:18.072Z,19.50
2022-09-12T04:44:08.052Z,20.08
2022-09-12T04:46:55.315Z,21.30
2022-09-12T04:49:42.413Z,19.98
2022-09-12T04:52:29.548Z,19.85
2022-09-12T04:55:16.798Z,26.48
2022-09-12T04:58:04.157Z,28.85
2022-09-12T05:00:51.268Z,26.00
2022-09-12T05:03:43.377Z,29.90
2022-09-12T05:06:34.895Z,28.23
2022-09-12T05:09:21.964Z,27.67
2022-09-12T05:12:09.458Z,24.67
2022-09-12T05:14:57.349Z,28.67
2022-09-12T05:17:44.578Z,30.05
2022-09-12T05:20:33.535Z,20.15
2022-09-12T05:23:21.805Z,25.17
2022-09-12T05:26:13.368Z,20.60
2022-09-12T05:29:00.615Z,20.05
2022-09-12T05:31:50.122Z,22.05
2022-09-12T05:34:37.905Z,19.08
2022-09-12T05:37:25.072Z,25.77
2022-09-12T05:40:14.498Z,24.15
2022-09-12T05:43:01.686Z,21.25
2022-09-12T05:45:48.924Z,23.25
2022-09-12T05:48:37.342Z,23.60
2022-09-12T05:51:27.335Z,18.17
2022-09-12T05:54:19.467Z,17.70
2022-09-12T05:57:06.811Z,14.63
2022-09-12T05:59:53.991Z,14.60
2022-09-12T06:02:41.287Z,14.57
2022-09-12T06:05:28.439Z,11.98
2022-09-12T06:08:15.717Z,13.73
2022-09-12T06:11:05.179Z,13.98
2022-09-12T06:13:52.924Z,10.93
2022-09-12T06:16:40.547Z,9.35
2022-09-12T06:19:28.115Z,9.57
2022-09-12T06:22:15.541Z,11.57
2022-09-12T06:25:03.011Z,11.35
2022-09-12T06:27:50.321Z,8.18
2022-09-12T06:30:37.440Z,7.85
2022-09-12T06:33:24.537Z,6.40
2022-09-12T06:36:21.231Z,6.22
2022-09-12T06:39:11.995Z,5.97
2022-09-12T06:41:59.085Z,5.65
2022-09-12T06:44:56.284Z,9.75
2022-09-12T06:47:43.353Z,5.68
2022-09-12T06:50:30.979Z,5.65
2022-09-12T06:53:18.105Z,6.47
2022-09-12T06:56:11.275Z,7.05
2022-09-12T06:58:59.385Z,6.85
2022-09-12T07:01:46.673Z,6.20
2022-09-12T07:04:36.623Z,5.85
2022-09-12T07:07:24.223Z,5.77
2022-09-12T07:10:12.434Z,5.50
2022-09-12T07:12:59.472Z,6.00
2022-09-12T07:15:46.631Z,5.00
2022-09-12T07:18:34.831Z,5.57
2022-09-12T07:21:22.629Z,6.10
2022-09-12T07:24:10.815Z,5.28
2022-09-12T07:26:58.143Z,6.15
2022-09-12T07:29:46.812Z,5.30
2022-09-12T07:32:34.031Z,5.05
2022-09-12T07:35:21.703Z,4.85
2022-09-12T07:38:09.308Z,5.60
2022-09-12T07:40:57.538Z,4.65
2022-09-12T07:43:44.714Z,4.40
2022-09-12T07:46:32.050Z,4.95
2022-09-12T07:49:19.107Z,4.70
2022-09-12T07:52:06.432Z,3.95
2022-09-12T07:54:53.761Z,4.03
2022-09-12T07:57:40.843Z,4.53
2022-09-12T08:00:35.913Z,4.20
2022-09-12T08:03:23.032Z,4.18
2022-09-12T08:06:12.621Z,4.13
2022-09-12T08:09:00.286Z,3.35
2022-09-12T08:11:47.327Z,4.75
2022-09-12T08:14:34.410Z,3.92
2022-09-12T08:17:22.048Z,5.07
2022-09-12T08:20:09.411Z,4.38
2022-09-12T08:22:56.602Z,5.10
2022-09-12T08:25:43.672Z,4.60
2022-09-12T08:28:32.382Z,3.97
2022-09-12T08:31:22.235Z,3.72
2022-09-12T08:34:09.422Z,3.25
2022-09-12T08:36:56.714Z,3.88
2022-09-12T08:39:44.083Z,4.43
2022-09-12T08:43:10.231Z,3.97
2022-09-12T08:46:22.983Z,3.92
2022-09-12T08:49:13.529Z,3.97
2022-09-12T08:54:53.818Z,5.45
2022-09-12T08:57:40.906Z,3.13
2022-09-12T09:00:54.122Z,3.20
2022-09-12T09:03:59.549Z,5.18
2022-09-12T09:06:59.214Z,3.80
2022-09-12T09:10:21.661Z,3.73
2022-09-12T09:13:42.466Z,4.38
2022-09-12T09:16:37.209Z,3.25
2022-09-12T09:19:50.655Z,3.78
2022-09-12T09:22:41.473Z,4.35
2022-09-12T09:25:37.672Z,3.90
2022-09-12T09:28:37.661Z,3.10
2022-09-12T09:31:26.884Z,3.00
2022-09-12T09:34:20.130Z,6.82
2022-09-12T09:37:18.592Z,3.70
2022-09-12T09:40:34.839Z,5.00
2022-09-12T09:43:24.401Z,4.35
2022-09-12T09:46:12.316Z,3.60
2022-09-12T09:49:03.089Z,5.38
2022-09-12T09:51:50.452Z,2.85
2022-09-12T09:54:43.096Z,4.28
2022-09-12T09:57:36.332Z,3.22
2022-09-12T10:00:30.424Z,3.25
2022-09-12T10:03:53.845Z,3.05
2022-09-12T10:06:41.756Z,3.92
2022-09-12T10:09:34.068Z,3.10
2022-09-12T10:12:28.468Z,3.03
2022-09-12T10:15:26.818Z,5.68
2022-09-12T10:18:34.092Z,2.88
2022-09-12T10:21:32.453Z,2.63
2022-09-12T10:24:45.666Z,4.60
2022-09-12T10:27:33.932Z,2.67
2022-09-12T10:30:24.876Z,2.65
2022-09-12T10:33:12.953Z,2.83
2022-09-12T10:36:01.857Z,3.03
2022-09-12T10:38:57.936Z,2.80
2022-09-12T10:41:45.881Z,2.95
2022-09-12T10:44:35.253Z,3.03
2022-09-12T10:47:31.853Z,2.88
2022-09-12T10:50:30.937Z,2.40
2022-09-12T10:53:24.479Z,2.38
2022-09-12T10:56:22.595Z,3.50
2022-09-12T10:59:28.477Z,4.88
2022-09-12T11:02:28.822Z,3.72
2022-09-12T11:05:46.353Z,4.43
2022-09-12T11:08:33.356Z,3.78
2022-09-12T11:11:39.072Z,3.35
2022-09-12T11:14:44.908Z,2.90
2022-09-12T11:17:54.166Z,4.13
2022-09-12T11:20:54.012Z,3.20
2022-09-12T11:33:25.554Z,2.58
2022-09-12T11:36:47.083Z,4.32
2022-09-12T11:39:44.609Z,3.22
2022-09-12T11:42:39.291Z,2.60
2022-09-12T11:45:37.240Z,5.10
2022-09-12T11:48:48.728Z,3.42
2022-09-12T12:00:52.696Z,2.17
2022-09-12T12:03:46.320Z,3.47
2022-09-12T12:15:48.393Z,2.47
2022-09-12T12:18:38.718Z,2.88
2022-09-12T12:24:23.426Z,2.70
2022-09-12T12:27:47.514Z,2.65
2022-09-12T12:30:40.872Z,3.35
2022-09-12T12:33:28.179Z,2.97
2022-09-12T12:36:40.261Z,3.20
2022-09-12T12:39:33.457Z,2.17
2022-09-12T12:42:32.819Z,1.70
2022-09-12T12:45:29.192Z,2.20
2022-09-12T12:48:18.753Z,1.75
2022-09-12T12:51:27.616Z,1.58
2022-09-12T12:54:42.093Z,2.38
2022-09-12T12:57:34.241Z,1.92
2022-09-12T13:00:21.237Z,3.20
2022-09-12T13:03:30.783Z,3.15
2022-09-12T13:06:56.523Z,1.95
2022-09-12T13:09:47.626Z,2.05
2022-09-12T13:12:43.840Z,1.63
2022-09-12T13:15:37.071Z,1.50
2022-09-12T13:18:28.243Z,1.45
2022-09-12T13:21:18.024Z,3.22
2022-09-12T13:24:15.873Z,2.28
2022-09-12T13:27:03.103Z,2.65
2022-09-12T13:29:50.463Z,2.80
2022-09-12T13:32:38.126Z,2.05
2022-09-12T13:35:38.495Z,1.70
2022-09-12T13:38:49.401Z,2.42
2022-09-12T13:41:48.456Z,2.17
2022-09-12T13:44:50.992Z,1.60
2022-09-12T13:47:42.014Z,1.40
2022-09-12T13:50:40.424Z,4.38
2022-09-12T13:53:36.839Z,2.03
2022-09-12T13:56:24.064Z,1.40
2022-09-12T13:59:12.757Z,1.52
2022-09-12T14:01:59.912Z,1.83
2022-09-12T14:05:08.990Z,2.05
2022-09-12T14:07:59.069Z,2.03
2022-09-12T14:10:50.149Z,2.03
2022-09-12T14:13:39.168Z,2.22
2022-09-12T14:16:29.212Z,2.28
2022-09-12T14:19:17.885Z,2.30
2022-09-12T14:22:05.094Z,3.13
2022-09-12T14:24:52.808Z,1.42
2022-09-12T14:27:45.786Z,2.83
2022-09-12T14:30:36.950Z,1.55
2022-09-12T14:33:24.113Z,1.48
2022-09-12T14:36:35.571Z,1.33
2022-09-12T14:39:30.853Z,1.42
2022-09-12T14:42:21.091Z,2.97
2022-09-12T14:45:18.116Z,1.25
2022-09-12T14:48:05.357Z,1.65
2022-09-12T14:50:54.311Z,1.33
2022-09-12T14:53:48.861Z,1.27
2022-09-12T14:56:43.017Z,1.40
2022-09-12T14:59:33.145Z,0.93
2022-09-12T15:02:20.346Z,1.15
2022-09-12T15:05:07.343Z,2.30
2022-09-12T15:08:00.799Z,4.80
2022-09-12T15:10:47.950Z,0.88
2022-09-12T15:13:40.435Z,6.15
2022-09-12T15:16:27.444Z,1.35
2022-09-12T15:19:14.783Z,1.05
2022-09-12T15:22:01.941Z,1.85
2022-09-12T15:24:49.596Z,0.80
2022-09-12T15:27:40.900Z,1.25
2022-09-12T15:30:28.184Z,3.08
2022-09-12T15:33:15.621Z,0.98
2022-09-12T15:36:03.088Z,2.35
2022-09-12T15:38:50.936Z,1.48
2022-09-12T15:41:39.708Z,4.20
2022-09-12T15:44:26.897Z,1.25
2022-09-12T15:47:14.006Z,1.95
2022-09-12T15:50:01.108Z,1.13
2022-09-12T15:52:48.756Z,0.88
2022-09-12T15:55:35.946Z,2.22
2022-09-12T15:58:23.407Z,1.02
2022-09-12T16:01:12.955Z,1.40
2022-09-12T16:04:03.068Z,0.83
2022-09-12T16:06:51.244Z,1.10
2022-09-12T16:09:38.355Z,1.98
2022-09-12T16:12:25.385Z,1.45
2022-09-12T16:15:15.498Z,2.95
2022-09-12T16:18:02.572Z,0.93
2022-09-12T16:20:56.768Z,1.17
2022-09-12T16:23:44.850Z,2.63
2022-09-12T16:26:31.918Z,1.35
2022-09-12T16:29:19.178Z,1.95
2022-09-12T16:32:06.463Z,0.98
2022-09-12T16:34:53.696Z,1.30
2022-09-12T16:37:41.254Z,2.83
2022-09-12T16:40:28.641Z,1.90
2022-09-12T16:43:18.689Z,2.05
2022-09-12T16:46:08.819Z,2.05
2022-09-12T16:48:58.005Z,2.20
2022-09-12T16:51:47.459Z,0.90
2022-09-12T16:54:34.536Z,1.60
2022-09-12T16:57:22.866Z,2.03
2022-09-12T17:00:10.542Z,1.88
2022-09-12T17:02:59.243Z,1.20
2022-09-12T17:05:46.353Z,2.22
2022-09-12T17:08:35.844Z,1.48
2022-09-12T17:11:26.857Z,2.08
2022-09-12T17:14:14.162Z,1.60
2022-09-12T17:17:01.354Z,1.42
2022-09-12T17:19:48.543Z,2.03
2022-09-12T17:22:35.562Z,2.22
2022-09-12T17:25:22.665Z,1.95
2022-09-12T17:28:09.763Z,2.65
2022-09-12T17:30:58.423Z,2.10
2022-09-12T17:33:45.747Z,1.60
2022-09-12T17:36:33.015Z,1.48
2022-09-12T17:39:20.157Z,1.63
2022-09-12T17:42:08.618Z,2.42
2022-09-12T17:44:58.270Z,2.35
2022-09-12T17:47:45.316Z,3.10
2022-09-12T17:50:39.440Z,2.00
2022-09-12T17:53:26.668Z,1.52
2022-09-12T17:56:13.980Z,1.98
2022-09-12T17:59:01.574Z,1.60
2022-09-12T18:02:07.377Z,1.58
2022-09-12T18:04:54.484Z,2.90
2022-09-12T18:07:44.204Z,2.20
2022-09-12T18:10:31.868Z,2.72
2022-09-12T18:13:18.967Z,3.85
2022-09-12T18:16:08.430Z,2.38
2022-09-12T18:18:55.561Z,2.85
2022-09-12T18:21:42.829Z,2.53
2022-09-12T18:24:29.950Z,3.85
2022-09-12T18:27:17.059Z,2.90
2022-09-12T18:30:20.528Z,2.80
2022-09-12T18:33:08.838Z,5.72
2022-09-12T18:35:55.927Z,2.83
2022-09-12T18:38:43.969Z,2.42
2022-09-12T18:41:31.198Z,2.75
2022-09-12T18:44:18.413Z,4.18
2022-09-12T18:47:06.428Z,4.05
2022-09-12T18:49:53.674Z,3.55
2022-09-12T18:52:40.786Z,3.22
2022-09-12T18:55:28.051Z,3.25
2022-09-12T18:58:15.116Z,6.05
2022-09-12T19:01:16.497Z,3.08
2022-09-12T19:04:04.932Z,4.82
2022-09-12T19:06:52.128Z,3.63
2022-09-12T19:09:39.195Z,2.97
2022-09-12T19:12:26.538Z,2.80
2022-09-12T19:15:13.750Z,4.28
2022-09-12T19:18:00.983Z,2.47
2022-09-12T19:20:52.820Z,3.00
2022-09-12T19:23:40.448Z,3.92
2022-09-12T19:26:28.138Z,2.80
2022-09-12T19:29:16.686Z,2.28
2022-09-12T19:32:04.152Z,4.57
2022-09-12T19:34:51.275Z,4.85
2022-09-12T19:37:38.655Z,4.22
2022-09-12T19:40:25.815Z,3.95
2022-09-12T19:43:12.915Z,4.10
2022-09-12T19:46:01.310Z,5.80
2022-09-12T19:48:48.761Z,3.13
2022-09-12T19:51:35.871Z,3.80
2022-09-12T19:54:23.330Z,2.92
2022-09-12T19:57:10.444Z,2.92
2022-09-12T19:59:57.582Z,2.80
2022-09-12T20:02:50.036Z,2.38
2022-09-12T20:05:42.016Z,2.92
2022-09-12T20:08:29.913Z,3.25
2022-09-12T20:11:19.122Z,3.08
2022-09-12T20:14:06.246Z,3.15
2022-09-12T20:16:53.314Z,3.63
2022-09-12T20:19:41.029Z,5.00
2022-09-12T20:22:28.103Z,4.43
2022-09-12T20:25:15.349Z,3.65
2022-09-12T20:28:03.169Z,2.63
2022-09-12T20:30:50.372Z,3.13
2022-09-12T20:33:37.610Z,3.15
2022-09-12T20:36:24.896Z,4.05
2022-09-12T20:39:14.637Z,4.32
2022-09-12T20:42:01.884Z,3.35
2022-09-12T20:44:49.076Z,5.22
2022-09-12T20:47:36.496Z,3.88
2022-09-12T20:50:23.531Z,3.10
2022-09-12T20:53:10.609Z,5.15
2022-09-12T20:55:57.661Z,3.00
2022-09-12T20:58:44.991Z,4.28
2022-09-12T21:01:32.855Z,2.90
2022-09-12T21:04:20.101Z,3.92
2022-09-12T21:07:07.292Z,3.20
2022-09-12T21:09:54.456Z,6.93
2022-09-12T21:12:41.500Z,3.95
2022-09-12T21:15:28.574Z,5.78
2022-09-12T21:18:15.626Z,3.03
2022-09-12T21:21:04.416Z,3.97
2022-09-12T21:23:51.612Z,3.10
2022-09-12T21:26:38.711Z,3.75
2022-09-12T21:29:25.753Z,3.03
2022-09-12T21:32:14.398Z,3.50
2022-09-12T21:35:03.332Z,3.22
2022-09-12T21:37:52.786Z,6.30
2022-09-12T21:40:39.913Z,3.17
2022-09-12T21:43:27.101Z,4.82
2022-09-12T21:46:14.335Z,3.05
2022-09-12T21:49:02.217Z,3.45
2022-09-12T21:51:50.298Z,2.97
2022-09-12T21:54:37.364Z,3.03
2022-09-12T21:57:24.434Z,3.75
2022-09-12T22:00:17.891Z,4.63
2022-09-12T22:03:04.995Z,4.47
2022-09-12T22:06:00.127Z,6.65
2022-09-12T22:08:47.174Z,2.97
2022-09-12T22:11:34.285Z,4.63
2022-09-12T22:14:21.316Z,3.05
2022-09-12T22:17:12.565Z,3.97
2022-09-12T22:19:59.709Z,3.08
2022-09-12T22:23:05.375Z,6.28
2022-09-12T22:25:56.198Z,4.07
2022-09-12T22:28:43.831Z,4.57
2022-09-12T22:31:31.017Z,4.45
2022-09-12T22:34:18.101Z,4.10
2022-09-12T22:37:05.634Z,11.30
2022-09-12T22:39:53.992Z,3.55
2022-09-12T22:42:41.101Z,4.65
2022-09-12T22:45:28.183Z,3.83
2022-09-12T22:48:16.883Z,3.38
2022-09-12T22:51:04.890Z,3.95
2022-09-12T22:53:52.441Z,4.18
2022-09-12T22:56:40.003Z,3.65
2022-09-12T22:59:27.044Z,3.35
2022-09-12T23:02:14.076Z,3.35
2022-09-12T23:05:01.109Z,3.65
2022-09-12T23:07:48.577Z,5.55
2022-09-12T23:10:37.238Z,4.03
2022-09-12T23:13:24.278Z,3.67
2022-09-12T23:16:16.928Z,4.43
2022-09-12T23:19:04.066Z,5.40
2022-09-12T23:21:51.318Z,7.35
2022-09-12T23:24:38.403Z,3.10
2022-09-12T23:27:27.600Z,4.25
2022-09-12T23:30:17.732Z,5.50
2022-09-12T23:33:04.885Z,3.47
2022-09-12T23:35:51.953Z,2.30
2022-09-12T23:38:39.080Z,3.50
2022-09-12T23:41:26.181Z,3.65
2022-09-12T23:44:13.305Z,5.28
2022-09-12T23:47:00.647Z,5.60
2022-09-12T23:49:47.683Z,2.50
2022-09-12T23:52:34.883Z,4.20
2022-09-12T23:55:21.925Z,3.13
2022-09-12T23:58:09.202Z,3.45
